createdAt,value
2022-08-03T00:03:44.013Z,0
2022-08-03T00:08:43.420Z,0
2022-08-03T00:13:42.531Z,0
2022-08-03T00:18:42.317Z,0
2022-08-03T00:23:55.062Z,0
2022-08-03T00:28:38.543Z,0
2022-08-03T00:34:07.461Z,0
2022-08-03T00:38:37.245Z,0
2022-08-03T00:43:37.826Z,0
2022-08-03T00:48:39.580Z,0
2022-08-03T00:53:36.343Z,0
2022-08-03T00:58:35.425Z,0
2022-08-03T00:59:57.561Z,0
2022-08-03T01:04:56.410Z,0
2022-08-03T01:09:55.617Z,0
2022-08-03T01:14:54.703Z,0
2022-08-03T01:19:54.145Z,0
2022-08-03T01:24:54.352Z,0
2022-08-03T01:29:53.311Z,0
2022-08-03T01:34:52.263Z,0
2022-08-03T01:39:50.746Z,0
2022-08-03T01:44:49.775Z,0
2022-08-03T01:49:49.110Z,0
2022-08-03T01:54:47.935Z,0
2022-08-03T01:58:59.167Z,0
2022-08-03T02:04:03.460Z,0
2022-08-03T02:08:57.991Z,0
2022-08-03T02:14:00.010Z,0
2022-08-03T02:18:55.475Z,0
2022-08-03T02:23:54.762Z,0
2022-08-03T02:28:53.367Z,0
2022-08-03T02:33:53.691Z,0
2022-08-03T02:38:52.362Z,0
2022-08-03T02:44:09.616Z,0
2022-08-03T02:48:51.737Z,0
2022-08-03T02:53:50.797Z,0
2022-08-03T02:58:49.876Z,0
2022-08-03T03:03:53.610Z,0
2022-08-03T03:08:46.522Z,0
2022-08-03T03:13:46.048Z,0
2022-08-03T03:18:44.870Z,0
2022-08-03T03:23:44.530Z,0
2022-08-03T03:28:44.274Z,0
2022-08-03T03:33:43.835Z,0
2022-08-03T03:38:42.592Z,0
2022-08-03T03:43:42.116Z,0
2022-08-03T03:48:43.599Z,0
2022-08-03T03:53:38.690Z,0
2022-08-03T03:58:37.821Z,0
2022-08-03T04:03:37.027Z,0
2022-08-03T04:08:36.279Z,0
2022-08-03T04:13:35.286Z,0
2022-08-03T04:18:35.321Z,0
2022-08-03T04:23:34.140Z,0
2022-08-03T04:28:34.573Z,0.01
2022-08-03T04:33:35.406Z,0.01
2022-08-03T04:38:30.783Z,0.01
2022-08-03T04:43:29.829Z,0.01
2022-08-03T04:48:29.191Z,0.02
2022-08-03T04:53:29.047Z,0.02
2022-08-03T04:58:28.658Z,0.02
2022-08-03T04:59:50.582Z,0.03
2022-08-03T05:04:49.925Z,0.03
2022-08-03T05:10:16.564Z,0.03
2022-08-03T05:14:46.815Z,0.04
2022-08-03T05:19:45.993Z,0.04
2022-08-03T05:24:45.143Z,0.05
2022-08-03T05:29:44.148Z,0.05
2022-08-03T05:34:44.257Z,0.06
2022-08-03T05:39:43.525Z,0.06
2022-08-03T05:44:43.847Z,0.06
2022-08-03T05:49:44.151Z,0.07
2022-08-03T05:54:59.857Z,0.07
2022-08-03T05:59:59.319Z,0.08
2022-08-03T06:04:13.853Z,0.09
2022-08-03T06:09:13.726Z,0.09
2022-08-03T06:14:13.090Z,0.1
2022-08-03T06:19:13.182Z,0.1
2022-08-03T06:24:16.783Z,0.11
2022-08-03T06:29:12.671Z,0.11
2022-08-03T06:34:38.267Z,0.12
2022-08-03T06:39:10.957Z,0.13
2022-08-03T06:44:16.426Z,0.13
2022-08-03T06:49:16.297Z,0.14
2022-08-03T06:54:15.904Z,0.14
2022-08-03T06:58:55.636Z,0.15
2022-08-03T07:03:55.900Z,0.15
2022-08-03T07:09:01.535Z,0.16
2022-08-03T07:13:53.464Z,0.17
2022-08-03T07:18:52.718Z,0.25
2022-08-03T07:23:52.221Z,0.32
2022-08-03T07:28:52.188Z,0.34
2022-08-03T07:33:52.081Z,0.35
2022-08-03T07:38:51.213Z,0.36
2022-08-03T07:43:51.633Z,0.38
2022-08-03T07:48:50.431Z,0.39
2022-08-03T07:53:55.126Z,0.41
2022-08-03T07:58:50.371Z,0.43
2022-08-03T08:03:56.208Z,0.44
2022-08-03T08:08:46.805Z,0.46
2022-08-03T08:13:47.231Z,0.48
2022-08-03T08:18:46.434Z,0.5
2022-08-03T08:24:00.072Z,0.52
2022-08-03T08:28:46.023Z,0.54
2022-08-03T08:34:06.964Z,0.55
2022-08-03T08:38:45.705Z,0.57
2022-08-03T08:43:45.857Z,0.59
2022-08-03T08:48:42.573Z,0.61
2022-08-03T08:53:41.941Z,0.62
2022-08-03T08:58:42.564Z,0.64
2022-08-03T09:03:40.484Z,0.65
2022-08-03T09:08:39.764Z,0.67
2022-08-03T09:13:39.710Z,0.69
2022-08-03T09:18:39.159Z,0.71
2022-08-03T09:24:25.878Z,0.72
2022-08-03T09:29:15.981Z,0.73
2022-08-03T09:33:38.393Z,0.74
2022-08-03T09:38:34.885Z,0.76
2022-08-03T09:43:34.009Z,0.77
2022-08-03T09:48:34.054Z,0.78
2022-08-03T09:53:33.999Z,0.8
2022-08-03T09:58:33.806Z,0.81
2022-08-03T10:00:10.431Z,0.82
2022-08-03T10:04:56.006Z,0.83
2022-08-03T10:09:53.776Z,0.84
2022-08-03T10:14:52.511Z,0.85
2022-08-03T10:19:51.376Z,0.85
2022-08-03T10:24:51.074Z,0.86
2022-08-03T10:29:51.367Z,0.88
2022-08-03T10:34:50.502Z,0.89
2022-08-03T10:39:50.432Z,0.9
2022-08-03T10:44:51.817Z,0.9
2022-08-03T10:49:49.362Z,0.91
2022-08-03T10:54:52.332Z,0.91
2022-08-03T10:59:29.289Z,0.91
2022-08-03T11:04:19.071Z,0.91
2022-08-03T11:09:12.794Z,0.91
2022-08-03T11:14:12.287Z,0.93
2022-08-03T11:19:14.465Z,0.93
2022-08-03T11:24:11.290Z,0.93
2022-08-03T11:29:10.243Z,0.91
2022-08-03T11:34:16.261Z,0.93
2022-08-03T11:39:19.411Z,0.93
2022-08-03T11:44:15.884Z,0.93
2022-08-03T11:49:15.882Z,0.94
2022-08-03T11:54:15.166Z,0.93
2022-08-03T11:59:24.681Z,0.9
2022-08-03T12:03:53.394Z,0.87
2022-08-03T12:08:53.879Z,0.88
2022-08-03T12:14:54.282Z,0.87
2022-08-03T12:18:49.463Z,0.88
2022-08-03T12:23:49.746Z,0.88
2022-08-03T12:28:52.447Z,0.87
2022-08-03T12:33:49.387Z,0.87
2022-08-03T12:38:51.167Z,0.85
2022-08-03T12:43:47.618Z,0.84
2022-08-03T12:48:46.388Z,0.82
2022-08-03T12:53:44.347Z,0.81
2022-08-03T12:58:43.475Z,0.8
2022-08-03T13:00:35.753Z,0.79
2022-08-03T13:05:12.868Z,0.79
2022-08-03T13:10:11.565Z,0.78
2022-08-03T13:15:03.597Z,0.77
2022-08-03T13:20:02.858Z,0.52
2022-08-03T13:25:01.646Z,0.59
2022-08-03T13:29:59.777Z,0.58
2022-08-03T13:34:58.822Z,0.36
2022-08-03T13:40:06.858Z,0.32
2022-08-03T13:44:57.434Z,0.46
2022-08-03T13:50:04.925Z,0.65
2022-08-03T13:54:56.780Z,0.34
2022-08-03T13:59:19.591Z,0.38
2022-08-03T14:04:24.515Z,0.29
2022-08-03T14:09:17.822Z,0.34
2022-08-03T14:14:17.226Z,0.41
2022-08-03T14:19:27.681Z,0.47
2022-08-03T14:24:15.685Z,0.45
2022-08-03T14:29:15.406Z,0.28
2022-08-03T14:34:15.173Z,0.34
2022-08-03T14:39:15.104Z,0.25
2022-08-03T14:44:14.017Z,0.24
2022-08-03T14:50:53.385Z,0.27
2022-08-03T14:54:11.662Z,0.37
2022-08-03T14:58:58.706Z,0.45
2022-08-03T15:03:58.508Z,0.39
2022-08-03T15:09:26.009Z,0.23
2022-08-03T15:13:58.241Z,0.33
2022-08-03T15:18:57.094Z,0.38
2022-08-03T15:23:57.658Z,0.3
2022-08-03T15:28:55.763Z,0.3
2022-08-03T15:33:54.822Z,0.26
2022-08-03T15:38:53.201Z,0.21
2022-08-03T15:43:52.470Z,0.18
2022-08-03T15:48:51.662Z,0.16
2022-08-03T15:53:51.119Z,0.16
2022-08-03T15:59:15.933Z,0.15
2022-08-03T16:03:50.508Z,0.15
2022-08-03T16:08:50.767Z,0.14
2022-08-03T16:14:54.483Z,0.14
2022-08-03T16:18:49.474Z,0.13
2022-08-03T16:23:49.782Z,0.12
2022-08-03T16:28:45.688Z,0.12
2022-08-03T16:33:44.600Z,0.11
2022-08-03T16:38:43.957Z,0.12
2022-08-03T16:43:43.967Z,0.1
2022-08-03T16:48:43.689Z,0.1
2022-08-03T16:54:18.358Z,0.09
2022-08-03T16:58:51.126Z,0.08
2022-08-03T17:04:07.002Z,0.08
2022-08-03T17:08:58.287Z,0.08
2022-08-03T17:13:47.840Z,0.07
2022-08-03T17:18:37.402Z,0.06
2022-08-03T17:23:38.425Z,0.06
2022-08-03T17:29:00.914Z,0.06
2022-08-03T17:33:39.218Z,0.05
2022-08-03T17:38:43.386Z,0.05
2022-08-03T17:44:47.631Z,0.04
2022-08-03T17:48:42.145Z,0.03
2022-08-03T17:53:55.454Z,0.03
2022-08-03T17:58:33.282Z,0.03
2022-08-03T17:59:55.606Z,0.03
2022-08-03T18:05:02.671Z,0.02
2022-08-03T18:10:16.990Z,0.02
2022-08-03T18:15:22.772Z,0.02
2022-08-03T18:20:42.732Z,0.01
2022-08-03T18:24:51.032Z,0.01
2022-08-03T18:29:49.993Z,0.01
2022-08-03T18:34:57.609Z,0
2022-08-03T18:39:58.530Z,0
2022-08-03T18:44:58.314Z,0
2022-08-03T18:49:49.242Z,0
2022-08-03T18:55:35.969Z,0
2022-08-03T18:59:37.142Z,0
2022-08-03T19:04:13.302Z,0
2022-08-03T19:09:12.495Z,0
2022-08-03T19:14:16.771Z,0
2022-08-03T19:19:15.071Z,0
2022-08-03T19:24:19.986Z,0
2022-08-03T19:29:17.690Z,0
2022-08-03T19:34:24.683Z,0
2022-08-03T19:39:14.915Z,0
2022-08-03T19:44:25.100Z,0
2022-08-03T19:49:18.201Z,0
2022-08-03T19:54:15.669Z,0
2022-08-03T19:58:55.828Z,0
2022-08-03T20:03:52.939Z,0
2022-08-03T21:20:01.717Z,0
2022-08-03T21:24:59.973Z,0
2022-08-03T21:29:59.564Z,0
2022-08-03T21:34:57.803Z,0
2022-08-03T21:39:57.576Z,0
2022-08-03T21:44:56.035Z,0
2022-08-03T21:50:11.867Z,0
2022-08-03T21:54:54.597Z,0
2022-08-03T21:59:15.567Z,0
2022-08-03T22:04:59.131Z,0
2022-08-03T22:09:14.472Z,0
2022-08-03T22:14:14.299Z,0
2022-08-03T22:19:10.964Z,0
2022-08-03T22:24:18.433Z,0
2022-08-03T22:29:16.801Z,0
2022-08-03T22:34:17.302Z,0
2022-08-03T22:39:28.706Z,0
2022-08-03T22:44:15.326Z,0
2022-08-03T22:49:15.624Z,0
2022-08-03T22:54:12.965Z,0
2022-08-03T22:58:59.554Z,0
2022-08-03T23:04:05.205Z,0
2022-08-03T23:08:57.766Z,0
2022-08-03T23:13:58.266Z,0
2022-08-03T23:18:59.195Z,0
2022-08-03T23:23:59.169Z,0
2022-08-03T23:28:55.195Z,0
2022-08-03T23:33:54.011Z,0
2022-08-03T23:38:54.048Z,0
2022-08-03T23:43:56.347Z,0
2022-08-03T23:48:56.288Z,0
2022-08-03T23:53:52.289Z,0
2022-08-03T23:58:52.260Z,0
